Time;durP1;ratioP1;P1;durP2;ratioP2;P2;SDS_P1;SDS_P2;PMS_P1;PMS_P2;Temp;Humidity;BMP_temperature;BMP_pressure;BME280_temperature;BME280_humidity;BME280_pressure;Samples;Min_cycle;Max_cycle;Signal;HPM_P1;HPM_P2
2021/10/02 00:35:00;;;;;;;;;;;;;;;16.28;72.56;100841.94;5072737;28;1592;-62
2021/10/02 00:37:52;;;;;;;;;;;;;;;16.30;72.62;100828.34;5073859;28;1890;-62
2021/10/02 00:45:46;;;;;;;;;;;;;;;16.30;72.61;100831.84;5073575;28;1629;-61
2021/10/02 00:48:11;;;;;;;;;;;;;;;16.30;72.91;100839.94;5074231;28;1699;-62
2021/10/02 00:50:36;;;;;;;;;;;;;;;16.30;72.85;100834.53;5074417;28;1658;-62
2021/10/02 00:53:02;;;;;;;;;;;;;;;16.30;72.62;100837.25;5074627;28;1575;-61
2021/10/02 00:55:27;;;;;;;;;;;;;;;16.30;72.92;100837.25;5074451;28;1668;-62
2021/10/02 00:57:52;;;;;;;;;;;;;;;16.30;72.65;100829.16;5074289;28;1909;-62
2021/10/02 01:00:17;;;;;;;;;;;;;;;16.30;72.70;100828.34;5074232;28;1793;-62
2021/10/02 01:02:43;;;;;;;;;;;;;;;16.30;72.61;100818.41;5074264;28;1603;-62
2021/10/02 01:05:08;;;;;;;;;;;;;;;16.31;72.76;100813.88;5074247;28;1718;-63
2021/10/02 01:07:33;;;;;;;;;;;;;;;16.30;72.91;100810.34;5074403;28;1652;-62
2021/10/02 01:09:58;;;;;;;;;;;;;;;16.31;72.78;100811.19;5074255;28;1582;-62
2021/10/02 01:12:23;;;;;;;;;;;;;;;16.30;72.88;100802.28;5074467;28;1639;-63
2021/10/02 01:14:48;;;;;;;;;;;;;;;16.30;72.97;100812.22;5074205;28;1702;-61
2021/10/02 01:17:13;;;;;;;;;;;;;;;16.28;72.84;100809.66;5055843;28;1902;-62
2021/10/02 01:19:39;;;;;;;;;;;;;;;16.29;72.77;100810.50;5074467;28;1742;-61
2021/10/02 01:22:08;;;;;;;;;;;;;;;16.29;72.80;100811.38;5074225;28;1618;-61
2021/10/02 01:24:34;;;;;;;;;;;;;;;16.30;72.94;100829.16;5074148;28;1733;-62
2021/10/02 01:26:59;;;;;;;;;;;;;;;16.29;72.62;100829.34;5073901;28;1978;-62
2021/10/02 01:29:24;;;;;;;;;;;;;;;16.28;73.00;100825.78;5074201;28;1559;-61
2021/10/02 01:32:12;;;;;;;;;;;;;;;16.28;72.69;100833.88;5074267;28;1552;-60
2021/10/02 01:35:24;;;;;;;;;;;;;;;16.29;73.33;100837.41;5073700;28;1490;-61
2021/10/02 01:37:35;;;;;;;;;;;;;;;16.27;72.70;100836.69;5063587;28;1898;-61
2021/10/02 01:48:13;;;;;;;;;;;;;;;16.26;72.59;100810.78;5077650;28;927;-61
2021/10/02 01:50:38;;;;;;;;;;;;;;;16.26;72.82;100810.78;5077913;28;913;-61
2021/10/02 01:53:03;;;;;;;;;;;;;;;16.25;73.00;100798.31;5077670;28;1902;-61
2021/10/02 01:55:28;;;;;;;;;;;;;;;16.25;72.88;100804.56;5077817;28;1220;-61
2021/10/02 01:57:53;;;;;;;;;;;;;;;16.26;72.77;100806.25;5077846;28;1973;-61
2021/10/02 02:00:18;;;;;;;;;;;;;;;16.26;73.04;100797.34;5078046;28;1754;-61
2021/10/02 02:02:43;;;;;;;;;;;;;;;16.26;72.84;100787.44;5077595;28;1016;-61
2021/10/02 02:05:08;;;;;;;;;;;;;;;16.26;72.86;100790.13;5077499;28;1906;-61
2021/10/02 02:07:33;;;;;;;;;;;;;;;16.26;72.84;100783.88;5077693;28;1025;-61
2021/10/02 02:09:58;;;;;;;;;;;;;;;16.26;72.73;100779.38;5077931;28;1508;-61
2021/10/02 02:12:30;;;;;;;;;;;;;;;16.26;73.08;100787.44;5077821;28;1002;-61
2021/10/02 02:14:55;;;;;;;;;;;;;;;16.26;73.09;100795.50;5077786;28;921;-61
2021/10/02 02:17:20;;;;;;;;;;;;;;;16.26;73.15;100800.88;5077551;28;1957;-60
2021/10/02 02:19:46;;;;;;;;;;;;;;;16.26;72.78;100808.94;5077182;28;1430;-60
2021/10/02 02:22:11;;;;;;;;;;;;;;;16.25;73.16;100796.47;5077572;28;776;-59
2021/10/02 02:24:36;;;;;;;;;;;;;;;16.25;73.30;100796.47;5076897;28;2048;-60
2021/10/02 02:27:01;;;;;;;;;;;;;;;16.25;72.81;100799.16;5059399;28;894;-62
2021/10/02 02:29:26;;;;;;;;;;;;;;;16.25;73.43;100799.16;5077077;28;928;-61
2021/10/02 02:31:52;;;;;;;;;;;;;;;16.26;73.22;100802.72;5077305;28;1056;-61
2021/10/02 02:34:17;;;;;;;;;;;;;;;16.26;73.19;100806.25;5058930;28;1464;-62
2021/10/02 02:36:42;;;;;;;;;;;;;;;16.25;72.87;100796.47;5077135;28;1898;-62
2021/10/02 02:39:07;;;;;;;;;;;;;;;16.25;73.24;100801.84;5077564;28;1524;-62
2021/10/02 02:41:32;;;;;;;;;;;;;;;16.25;73.25;100799.16;5058902;28;1727;-62
2021/10/02 02:43:57;;;;;;;;;;;;;;;16.24;73.11;100797.47;5076970;28;1965;-62
2021/10/02 02:46:22;;;;;;;;;;;;;;;16.23;73.12;100787.69;5077333;28;1005;-62
2021/10/02 02:48:47;;;;;;;;;;;;;;;16.24;73.25;100780.47;5077008;28;893;-61
2021/10/02 02:51:13;;;;;;;;;;;;;;;16.25;73.36;100776.81;5075796;28;977;-61
2021/10/02 02:53:38;;;;;;;;;;;;;;;16.25;73.12;100763.38;5076600;28;926;-61
2021/10/02 02:56:03;;;;;;;;;;;;;;;16.25;73.65;100771.44;5077000;28;1447;-61
2021/10/02 02:58:28;;;;;;;;;;;;;;;16.25;73.00;100756.16;5076981;28;1906;-61
2021/10/02 03:00:55;;;;;;;;;;;;;;;16.24;73.24;100753.59;5076486;28;862;-61
2021/10/02 03:03:20;;;;;;;;;;;;;;;16.24;73.13;100753.59;5077301;28;1901;-62
2021/10/02 03:05:46;;;;;;;;;;;;;;;16.24;73.31;100764.34;5075723;28;1834;-62
2021/10/02 03:08:11;;;;;;;;;;;;;;;16.24;73.43;100754.44;5076072;28;1645;-62
2021/10/02 03:10:36;;;;;;;;;;;;;;;16.24;73.23;100757.13;5075821;28;1655;-61
2021/10/02 03:13:01;;;;;;;;;;;;;;;16.24;73.38;100749.06;5075660;28;1841;-62
2021/10/02 03:15:26;;;;;;;;;;;;;;;16.24;73.41;100767.88;5075612;28;1808;-63
2021/10/02 03:17:51;;;;;;;;;;;;;;;16.24;73.47;100770.59;5075395;28;2003;-61
2021/10/02 03:20:16;;;;;;;;;;;;;;;16.24;73.31;100786.72;5075005;28;1748;-62
2021/10/02 03:22:41;;;;;;;;;;;;;;;16.23;73.63;100781.47;5075337;28;1632;-62
2021/10/02 03:25:06;;;;;;;;;;;;;;;16.22;73.68;100775.25;5075497;28;1669;-62
2021/10/02 03:27:31;;;;;;;;;;;;;;;16.24;73.22;100781.34;5075364;28;1568;-62
2021/10/02 03:29:56;;;;;;;;;;;;;;;16.22;73.46;100769.88;5076171;28;1170;-61
2021/10/02 03:32:21;;;;;;;;;;;;;;;16.23;73.45;100774.25;5076417;28;925;-61
2021/10/02 03:34:46;;;;;;;;;;;;;;;16.24;73.52;100780.47;5075398;28;1493;-62
2021/10/02 03:37:11;;;;;;;;;;;;;;;16.22;72.92;100780.63;5075483;28;1964;-61
2021/10/02 03:39:37;;;;;;;;;;;;;;;16.21;73.07;100781.59;5075611;28;1663;-61
2021/10/02 03:42:02;;;;;;;;;;;;;;;16.21;73.25;100791.50;5075260;28;1749;-61
2021/10/02 03:44:27;;;;;;;;;;;;;;;16.20;72.88;100776.38;5075271;28;1754;-61
2021/10/02 03:46:52;;;;;;;;;;;;;;;16.18;73.32;100776.50;5075447;28;1730;-61
2021/10/02 03:49:17;;;;;;;;;;;;;;;16.20;73.17;100779.06;5075330;28;1727;-61
2021/10/02 03:51:42;;;;;;;;;;;;;;;16.18;72.96;100776.50;5075097;28;1772;-62
2021/10/02 03:54:07;;;;;;;;;;;;;;;16.19;73.44;100778.19;5075067;28;1662;-63
2021/10/02 03:56:32;;;;;;;;;;;;;;;16.18;73.29;100784.56;5057314;28;1910;-63
2021/10/02 03:58:57;;;;;;;;;;;;;;;16.18;73.28;100786.41;5075831;28;849;-63
2021/10/02 04:01:23;;;;;;;;;;;;;;;16.17;73.23;100782.84;5075348;28;815;-63
2021/10/02 04:03:48;;;;;;;;;;;;;;;16.17;73.11;100785.56;5075505;28;1998;-62
2021/10/02 04:06:13;;;;;;;;;;;;;;;16.15;72.99;100792.03;5075657;28;1645;-62
2021/10/02 04:08:38;;;;;;;;;;;;;;;16.15;72.70;100786.66;5075426;28;878;-63
2021/10/02 04:11:05;;;;;;;;;;;;;;;16.15;73.32;100787.53;5075552;28;1048;-63
2021/10/02 04:13:30;;;;;;;;;;;;;;;16.16;73.25;100785.69;5075439;28;846;-62
2021/10/02 04:15:55;;;;;;;;;;;;;;;16.15;73.03;100786.66;5075057;28;904;-62
2021/10/02 04:18:20;;;;;;;;;;;;;;;16.15;73.19;100782.13;5075254;28;1874;-63
2021/10/02 04:20:46;;;;;;;;;;;;;;;16.14;73.11;100777.75;5075265;28;1036;-63
2021/10/02 04:23:11;;;;;;;;;;;;;;;16.15;73.18;100783.97;5075050;28;2088;-63
2021/10/02 04:25:36;;;;;;;;;;;;;;;16.14;73.23;100780.44;5074961;28;1897;-63
2021/10/02 04:28:01;;;;;;;;;;;;;;;16.13;73.23;100773.34;5075136;28;795;-63
2021/10/02 04:30:26;;;;;;;;;;;;;;;16.13;73.55;100770.66;5074641;28;1907;-63
2021/10/02 04:32:51;;;;;;;;;;;;;;;16.13;73.04;100776.03;5056798;28;847;-63
2021/10/02 04:35:16;;;;;;;;;;;;;;;16.14;73.62;100779.59;5074663;28;1089;-63
2021/10/02 04:37:41;;;;;;;;;;;;;;;16.13;73.24;100777.88;5075106;28;1958;-62
2021/10/02 04:40:06;;;;;;;;;;;;;;;16.11;73.33;100774.50;5074895;28;827;-62
2021/10/02 04:42:31;;;;;;;;;;;;;;;16.11;73.27;100775.38;5074738;28;1856;-62
2021/10/02 04:44:56;;;;;;;;;;;;;;;16.11;73.25;100777.19;5074899;28;1629;-62
2021/10/02 04:47:24;;;;;;;;;;;;;;;16.11;73.18;100779.88;5075073;28;1021;-62
2021/10/02 04:49:49;;;;;;;;;;;;;;;16.11;73.31;100771.81;5074874;28;847;-62
2021/10/02 04:52:14;;;;;;;;;;;;;;;16.10;72.97;100762.91;5074643;28;921;-61
2021/10/02 04:54:39;;;;;;;;;;;;;;;16.11;73.04;100770.00;5074684;28;1343;-62
2021/10/02 04:57:04;;;;;;;;;;;;;;;16.10;73.01;100770.13;5074784;28;1968;-62
2021/10/02 04:59:29;;;;;;;;;;;;;;;16.10;73.24;100767.44;5074883;28;915;-61
2021/10/02 05:01:54;;;;;;;;;;;;;;;16.09;73.17;100761.19;5074421;28;2081;-61
2021/10/02 05:04:20;;;;;;;;;;;;;;;16.09;73.02;100755.81;5074540;28;874;-61
2021/10/02 05:06:45;;;;;;;;;;;;;;;16.09;73.02;100763.88;5075095;28;1021;-62
2021/10/02 05:09:10;;;;;;;;;;;;;;;16.08;73.20;100775.63;5075110;28;930;-61
2021/10/02 05:11:35;;;;;;;;;;;;;;;16.09;73.24;100781.84;5074864;28;823;-61
2021/10/02 05:14:00;;;;;;;;;;;;;;;16.08;73.28;100781.00;5076037;28;2032;-61
2021/10/02 05:16:25;;;;;;;;;;;;;;;16.08;73.28;100781.00;5078878;28;950;-61
2021/10/02 05:18:50;;;;;;;;;;;;;;;16.08;73.36;100764.88;5078646;28;1906;-61
2021/10/02 05:21:16;;;;;;;;;;;;;;;16.07;73.21;100760.47;5078574;28;854;-61
2021/10/02 05:23:41;;;;;;;;;;;;;;;16.07;72.82;100759.63;5078730;28;886;-62
2021/10/02 05:26:09;;;;;;;;;;;;;;;16.07;73.17;100768.56;5078573;28;871;-60
2021/10/02 05:28:34;;;;;;;;;;;;;;;16.07;73.06;100765.88;5078402;28;847;-61
2021/10/02 05:30:59;;;;;;;;;;;;;;;16.07;72.55;100768.56;5078341;28;1065;-60
2021/10/02 05:33:24;;;;;;;;;;;;;;;16.07;73.17;100765.00;5078189;28;899;-60
2021/10/02 05:35:50;;;;;;;;;;;;;;;16.06;73.07;100772.22;5078475;28;840;-61
2021/10/02 05:38:19;;;;;;;;;;;;;;;16.06;73.09;100780.28;5078198;28;1902;-60
2021/10/02 05:40:45;;;;;;;;;;;;;;;16.07;73.04;100784.69;5078216;28;1930;-60
2021/10/02 05:43:10;;;;;;;;;;;;;;;16.07;72.91;100783.81;5077808;28;1969;-60
2021/10/02 05:45:35;;;;;;;;;;;;;;;16.07;73.00;100792.75;5078142;28;1061;-60
2021/10/02 05:48:00;;;;;;;;;;;;;;;16.07;73.07;100789.22;5078459;28;1549;-61
2021/10/02 05:50:25;;;;;;;;;;;;;;;16.07;73.08;100778.44;5060102;28;929;-61
2021/10/02 05:52:50;;;;;;;;;;;;;;;16.06;73.12;100777.59;5078539;28;866;-64
2021/10/02 05:55:15;;;;;;;;;;;;;;;16.06;73.34;100774.06;5078197;28;1451;-63
2021/10/02 05:57:40;;;;;;;;;;;;;;;16.06;73.50;100772.22;5077716;28;1971;-62
2021/10/02 06:00:07;;;;;;;;;;;;;;;16.05;73.24;100770.53;5077664;28;2100;-62
2021/10/02 06:02:32;;;;;;;;;;;;;;;16.06;73.30;100771.38;5077959;28;850;-61
2021/10/02 06:04:57;;;;;;;;;;;;;;;16.05;72.81;100765.16;5078009;28;1623;-61
2021/10/02 06:07:22;;;;;;;;;;;;;;;16.05;72.80;100775.91;5077701;28;914;-62
2021/10/02 06:09:47;;;;;;;;;;;;;;;16.06;73.19;100777.59;5077347;28;1076;-61
2021/10/02 06:12:12;;;;;;;;;;;;;;;16.07;73.17;100767.69;5077897;28;834;-61
2021/10/02 06:14:37;;;;;;;;;;;;;;;16.06;73.19;100766.84;5059490;28;1747;-62
2021/10/02 06:17:03;;;;;;;;;;;;;;;16.07;72.78;100759.63;5077337;28;1891;-62
2021/10/02 06:19:28;;;;;;;;;;;;;;;16.07;73.21;100765.00;5077164;28;1858;-62
2021/10/02 06:21:54;;;;;;;;;;;;;;;16.06;73.11;100766.84;5059513;28;1939;-60
2021/10/02 06:24:19;;;;;;;;;;;;;;;16.06;73.37;100766.84;5077309;28;1930;-61
2021/10/02 06:26:44;;;;;;;;;;;;;;;16.08;73.03;100772.94;5076497;28;2080;-62
2021/10/02 06:29:09;;;;;;;;;;;;;;;16.10;73.12;100773.66;5075975;28;1494;-63
2021/10/02 06:31:34;;;;;;;;;;;;;;;16.12;73.12;100777.03;5076057;28;1434;-63
2021/10/02 06:33:59;;;;;;;;;;;;;;;16.13;73.26;100780.56;5075991;28;1686;-63
2021/10/02 06:36:27;;;;;;;;;;;;;;;16.13;73.59;100784.13;5077054;28;1193;-63
2021/10/02 06:38:52;;;;;;;;;;;;;;;16.13;73.23;100775.19;5076151;28;1953;-61
2021/10/02 06:41:17;;;;;;;;;;;;;;;16.14;73.65;100779.59;5076048;28;1387;-61
2021/10/02 06:43:42;;;;;;;;;;;;;;;16.13;73.73;100778.72;5072789;28;1478;-64
2021/10/02 06:46:07;;;;;;;;;;;;;;;16.15;73.58;100775.91;5055327;28;1411;-64
2021/10/02 06:48:32;;;;;;;;;;;;;;;16.14;73.77;100783.13;5058273;28;1415;-64
2021/10/02 06:50:57;;;;;;;;;;;;;;;16.17;74.02;100782.84;5054860;28;1429;-64
2021/10/02 06:53:22;;;;;;;;;;;;;;;16.17;73.76;100774.78;5058173;28;1409;-64
2021/10/02 06:55:47;;;;;;;;;;;;;;;16.19;74.09;100777.34;5056008;28;1346;-64
2021/10/02 06:58:13;;;;;;;;;;;;;;;16.21;73.77;100767.31;5057507;28;1973;-64
2021/10/02 07:00:38;;;;;;;;;;;;;;;16.22;73.83;100761.78;5055495;28;1455;-64
2021/10/02 07:03:03;;;;;;;;;;;;;;;16.26;73.74;100760.53;5057849;28;1411;-63
2021/10/02 07:05:28;;;;;;;;;;;;;;;16.32;73.64;100762.66;5059083;28;1395;-63
2021/10/02 07:07:53;;;;;;;;;;;;;;;16.40;73.32;100753.06;5074242;28;1506;-62
2021/10/02 07:10:20;;;;;;;;;;;;;;;16.47;74.93;100752.38;5071387;28;1758;-62
2021/10/02 07:12:45;;;;;;;;;;;;;;;16.56;75.71;100754.19;5069600;28;1811;-62
2021/10/02 07:15:11;;;;;;;;;;;;;;;16.58;74.87;100746.00;5072970;28;1832;-62
2021/10/02 07:17:36;;;;;;;;;;;;;;;16.64;76.49;100745.47;5071218;28;1897;-61
2021/10/02 07:20:01;;;;;;;;;;;;;;;16.66;76.65;100748.84;5075989;28;1735;-62
2021/10/02 07:22:26;;;;;;;;;;;;;;;16.70;76.60;100744.03;5076083;28;1826;-61
2021/10/02 07:24:51;;;;;;;;;;;;;;;16.72;76.88;100742.91;5076092;28;2107;-61
2021/10/02 07:27:16;;;;;;;;;;;;;;;16.78;76.22;100741.50;5075964;28;2017;-60
2021/10/02 07:29:41;;;;;;;;;;;;;;;16.81;76.11;100742.06;5070025;28;2096;-61
2021/10/02 07:32:06;;;;;;;;;;;;;;;16.83;75.40;100734.72;5056227;28;1639;-60
2021/10/02 07:34:31;;;;;;;;;;;;;;;16.86;75.23;100730.88;5060420;28;1707;-60
2021/10/02 07:36:56;;;;;;;;;;;;;;;16.87;75.39;100732.56;5056298;28;1953;-60
2021/10/02 07:39:21;;;;;;;;;;;;;;;16.89;75.20;100728.75;5063761;28;1909;-61
2021/10/02 07:41:47;;;;;;;;;;;;;;;16.91;75.01;100729.44;5074443;28;1380;-61
2021/10/02 07:44:12;;;;;;;;;;;;;;;16.96;74.51;100740.66;5067142;28;1497;-61
2021/10/02 07:46:37;;;;;;;;;;;;;;;16.97;74.46;100728.88;5041107;28;1478;-61
2021/10/02 07:49:02;;;;;;;;;;;;;;;16.99;74.62;100723.38;5065405;28;1657;-61
2021/10/02 07:51:27;;;;;;;;;;;;;;;17.00;74.25;100728.59;5073493;28;1491;-60
2021/10/02 07:53:53;;;;;;;;;;;;;;;17.02;74.51;100718.50;5073888;28;1300;-61
2021/10/02 07:56:18;;;;;;;;;;;;;;;17.00;74.19;100723.22;5072988;28;1399;-61
2021/10/02 07:58:43;;;;;;;;;;;;;;;17.02;74.19;100723.03;5073317;28;1914;-61
2021/10/02 08:01:08;;;;;;;;;;;;;;;17.05;73.88;100727.28;5073208;28;1825;-60
2021/10/02 08:03:33;;;;;;;;;;;;;;;17.08;73.77;100721.63;5073263;28;1437;-61
2021/10/02 08:05:58;;;;;;;;;;;;;;;17.10;73.97;100719.66;5074102;28;1501;-61
2021/10/02 08:08:23;;;;;;;;;;;;;;;17.15;73.60;100725.47;5074339;28;1647;-61
2021/10/02 08:10:48;;;;;;;;;;;;;;;17.15;73.20;100717.38;5074986;28;1836;-61
2021/10/02 08:13:13;;;;;;;;;;;;;;;17.15;73.44;100715.53;5069630;28;1904;-61
2021/10/02 08:15:38;;;;;;;;;;;;;;;17.19;73.22;100718.78;5075219;28;1690;-61
2021/10/02 08:18:04;;;;;;;;;;;;;;;17.24;72.92;100716.50;5074356;28;1893;-61
2021/10/02 08:20:29;;;;;;;;;;;;;;;17.24;72.95;100713.81;5075141;28;882;-61
2021/10/02 08:22:54;;;;;;;;;;;;;;;17.23;73.03;100717.47;5074770;28;1874;-61
2021/10/02 08:25:20;;;;;;;;;;;;;;;17.24;72.96;100713.81;5075282;28;843;-61
2021/10/02 08:27:45;;;;;;;;;;;;;;;17.23;73.24;100714.78;5073952;28;1769;-60
2021/10/02 08:30:10;;;;;;;;;;;;;;;17.25;72.93;100702.03;5074040;28;1595;-61
2021/10/02 08:32:35;;;;;;;;;;;;;;;17.24;72.93;100692.25;5074674;28;1882;-60
2021/10/02 08:35:00;;;;;;;;;;;;;;;17.23;72.81;100694.09;5075184;28;851;-60
2021/10/02 08:37:25;;;;;;;;;;;;;;;17.24;73.00;100697.63;5074766;28;2303;-61
2021/10/02 08:39:50;;;;;;;;;;;;;;;17.23;72.33;100694.09;5074827;28;1583;-61
2021/10/02 08:42:15;;;;;;;;;;;;;;;17.23;72.79;100686.03;5074416;28;1834;-61
2021/10/02 08:44:40;;;;;;;;;;;;;;;17.23;72.58;100687.84;5074298;28;1927;-61
2021/10/02 08:47:05;;;;;;;;;;;;;;;17.22;72.97;100684.31;5073910;28;1758;-61
2021/10/02 08:49:31;;;;;;;;;;;;;;;17.25;72.96;100691.25;5076543;28;1715;-61
2021/10/02 08:51:56;;;;;;;;;;;;;;;17.29;72.74;100698.06;5080361;28;1641;-61
2021/10/02 08:54:21;;;;;;;;;;;;;;;17.31;72.68;100679.91;5070275;28;1562;-62
2021/10/02 08:56:46;;;;;;;;;;;;;;;17.34;72.68;100668.84;5078831;28;1974;-61
2021/10/02 08:59:13;;;;;;;;;;;;;;;17.37;72.62;100673.09;5080531;28;1524;-60
2021/10/02 09:01:38;;;;;;;;;;;;;;;17.37;72.67;100676.63;5094777;28;1193;-61
2021/10/02 09:04:03;;;;;;;;;;;;;;;17.39;72.21;100677.31;5081376;28;1624;-61
2021/10/02 09:06:28;;;;;;;;;;;;;;;17.40;71.91;100679.00;5087506;28;1632;-61
2021/10/02 09:08:53;;;;;;;;;;;;;;;17.42;71.88;100671.63;5085270;28;1137;-62
2021/10/02 09:11:18;;;;;;;;;;;;;;;17.45;71.79;100660.56;5094551;28;1198;-61
2021/10/02 09:13:43;;;;;;;;;;;;;;;17.48;72.12;100659.44;5078102;28;1471;-61
2021/10/02 09:16:09;;;;;;;;;;;;;;;17.47;71.84;100661.28;5084516;28;1161;-61
2021/10/02 09:18:34;;;;;;;;;;;;;;;17.48;72.22;100659.44;5085991;28;1941;-61
2021/10/02 09:20:59;;;;;;;;;;;;;;;17.50;72.03;100662.81;5081128;28;1246;-61
2021/10/02 09:23:24;;;;;;;;;;;;;;;17.49;72.00;100656.59;5085638;28;1605;-61
2021/10/02 09:25:49;;;;;;;;;;;;;;;17.48;71.48;100660.28;5084108;28;1918;-61
2021/10/02 09:28:14;;;;;;;;;;;;;;;17.46;71.64;100654.19;5093007;28;1887;-60
2021/10/02 09:30:39;;;;;;;;;;;;;;;17.48;71.68;100649.50;5087243;28;1424;-61
2021/10/02 09:33:04;;;;;;;;;;;;;;;17.48;71.78;100645.97;5092767;28;1444;-60
2021/10/02 09:35:29;;;;;;;;;;;;;;;17.47;72.13;100637.03;5081426;28;1593;-60
2021/10/02 09:37:55;;;;;;;;;;;;;;;17.50;71.92;100646.66;5093302;28;1965;-61
2021/10/02 09:40:20;;;;;;;;;;;;;;;17.50;72.44;100636.72;5086437;28;1421;-60
2021/10/02 09:42:45;;;;;;;;;;;;;;;17.49;71.76;100635.03;5086235;28;1748;-60
2021/10/02 09:45:11;;;;;;;;;;;;;;;17.50;72.10;100635.88;5093539;28;1532;-60
2021/10/02 09:47:37;;;;;;;;;;;;;;;17.49;72.05;100637.72;5081149;28;1545;-60
2021/10/02 09:50:02;;;;;;;;;;;;;;;17.50;71.84;100635.88;5091611;28;1794;-60
2021/10/02 09:52:27;;;;;;;;;;;;;;;17.51;71.69;100635.75;5087068;28;1732;-60
2021/10/02 09:54:52;;;;;;;;;;;;;;;17.54;71.93;100639.97;5079177;28;1649;-60
2021/10/02 09:57:17;;;;;;;;;;;;;;;17.55;71.84;100633.59;5078386;28;1914;-60
2021/10/02 09:59:42;;;;;;;;;;;;;;;17.57;71.76;100632.41;5079389;28;1705;-60
2021/10/02 10:02:07;;;;;;;;;;;;;;;17.60;71.39;100632.13;5084097;28;1865;-60
2021/10/02 10:04:32;;;;;;;;;;;;;;;17.63;72.00;100629.13;5089472;28;1329;-60
2021/10/02 10:06:57;;;;;;;;;;;;;;;17.67;71.40;100621.63;5079096;28;1452;-60
2021/10/02 10:09:22;;;;;;;;;;;;;;;17.68;71.30;100618.78;5078472;28;1460;-60
2021/10/02 10:11:47;;;;;;;;;;;;;;;17.69;71.43;100619.66;5082995;28;1750;-61
2021/10/02 10:14:12;;;;;;;;;;;;;;;17.72;71.95;100611.25;5078484;28;1685;-60
2021/10/02 10:16:38;;;;;;;;;;;;;;;17.71;71.67;100614.97;5076779;28;1504;-61
2021/10/02 10:19:03;;;;;;;;;;;;;;;17.71;71.73;100606.88;5077542;28;1951;-60
2021/10/02 10:21:28;;;;;;;;;;;;;;;17.73;71.76;100595.94;5077115;28;1662;-60
2021/10/02 10:23:53;;;;;;;;;;;;;;;17.74;71.53;100595.75;5077048;28;1638;-60
2021/10/02 10:26:23;;;;;;;;;;;;;;;17.74;71.78;100594.91;5077331;28;1029;-59
2021/10/02 10:28:48;;;;;;;;;;;;;;;17.75;71.89;100591.22;5077439;28;833;-60
2021/10/02 10:31:14;;;;;;;;;;;;;;;17.77;71.91;100586.53;5076923;28;1629;-60
2021/10/02 10:33:39;;;;;;;;;;;;;;;17.77;72.00;100573.91;5077085;28;914;-60
2021/10/02 10:36:04;;;;;;;;;;;;;;;17.78;71.63;100580.13;5059233;28;1195;-60
2021/10/02 10:38:30;;;;;;;;;;;;;;;17.77;71.44;100573.91;5077004;28;1890;-60
2021/10/02 10:40:56;;;;;;;;;;;;;;;17.78;71.98;100562.13;5077204;28;975;-59
2021/10/02 10:43:22;;;;;;;;;;;;;;;17.79;71.56;100549.50;5077057;28;1931;-60
2021/10/02 10:45:48;;;;;;;;;;;;;;;17.79;71.87;100554.88;5076993;28;856;-60
2021/10/02 10:48:13;;;;;;;;;;;;;;;17.77;71.88;100541.56;5076619;28;851;-60
2021/10/02 10:50:38;;;;;;;;;;;;;;;17.78;71.63;100547.78;5075831;28;1926;-60
2021/10/02 10:53:03;;;;;;;;;;;;;;;17.77;71.50;100532.63;5076346;28;1495;-60
2021/10/02 10:55:28;;;;;;;;;;;;;;;17.78;71.29;100531.63;5083648;28;1624;-60
2021/10/02 10:57:53;;;;;;;;;;;;;;;17.81;71.58;100531.31;5080406;28;1914;-60
2021/10/02 11:00:18;;;;;;;;;;;;;;;17.87;71.75;100536.97;5076214;28;1740;-60
2021/10/02 11:02:43;;;;;;;;;;;;;;;17.88;71.89;100516.25;5057944;28;1679;-60
2021/10/02 11:05:08;;;;;;;;;;;;;;;17.88;71.21;100527.88;5077072;28;965;-60
2021/10/02 11:07:33;;;;;;;;;;;;;;;17.86;71.37;100519.09;5075655;28;1811;-60
2021/10/02 11:09:58;;;;;;;;;;;;;;;17.85;71.84;100516.53;5076174;28;1017;-60
2021/10/02 11:12:23;;;;;;;;;;;;;;;17.86;71.98;100523.63;5074796;28;1264;-60
2021/10/02 11:14:54;;;;;;;;;;;;;;;17.85;72.16;100509.31;5075714;28;1758;-60
2021/10/02 11:17:19;;;;;;;;;;;;;;;17.82;72.06;100506.06;5075254;28;1953;-60
2021/10/02 11:19:44;;;;;;;;;;;;;;;17.78;72.06;100493.88;5058855;28;1533;-59
2021/10/02 11:22:10;;;;;;;;;;;;;;;17.75;72.01;100488.81;5076035;28;1996;-60
2021/10/02 11:24:35;;;;;;;;;;;;;;;17.73;72.39;100488.13;5076169;28;1921;-60
2021/10/02 11:27:01;;;;;;;;;;;;;;;17.73;72.04;100480.06;5075629;28;1726;-60
2021/10/02 11:29:26;;;;;;;;;;;;;;;17.69;72.32;100466.88;5075705;28;1703;-60
2021/10/02 11:31:51;;;;;;;;;;;;;;;17.68;72.72;100467.03;5075439;28;1726;-60
2021/10/02 11:34:16;;;;;;;;;;;;;;;17.66;72.51;100459.09;5075239;28;1660;-60
2021/10/02 11:36:41;;;;;;;;;;;;;;;17.65;72.79;100468.19;5075659;28;1711;-60
2021/10/02 11:39:06;;;;;;;;;;;;;;;17.71;72.39;100472.13;5076098;28;1882;-62
2021/10/02 11:41:31;;;;;;;;;;;;;;;17.87;72.07;100468.72;5075578;28;1887;-63
2021/10/02 11:43:56;;;;;;;;;;;;;;;17.94;72.61;100462.53;5074617;28;1600;-62
2021/10/02 11:46:25;;;;;;;;;;;;;;;17.96;72.38;100463.22;5074801;28;1814;-64
2021/10/02 11:48:50;;;;;;;;;;;;;;;17.98;72.46;100452.28;5074843;28;1751;-65
2021/10/02 11:51:15;;;;;;;;;;;;;;;18.00;72.39;100450.28;5074668;28;1801;-63
2021/10/02 11:53:40;;;;;;;;;;;;;;;18.00;73.25;100444.88;5074937;28;1775;-63
2021/10/02 11:56:05;;;;;;;;;;;;;;;17.97;72.97;100429.84;5074318;28;1875;-63
2021/10/02 11:58:30;;;;;;;;;;;;;;;17.94;73.73;100418.53;5075319;28;1965;-63
2021/10/02 12:01:00;;;;;;;;;;;;;;;17.98;74.57;100417.22;5075584;28;1936;-63
2021/10/02 12:03:25;;;;;;;;;;;;;;;18.13;73.83;100412.94;5060485;28;1606;-63
2021/10/02 12:05:51;;;;;;;;;;;;;;;18.36;72.85;100405.16;5075582;28;1626;-63
2021/10/02 12:08:16;;;;;;;;;;;;;;;18.63;72.31;100391.47;5075362;28;909;-64
2021/10/02 12:10:41;;;;;;;;;;;;;;;18.92;71.21;100380.28;5075179;28;1884;-63
2021/10/02 12:13:06;;;;;;;;;;;;;;;19.19;70.58;100372.91;5074910;28;1518;-63
2021/10/02 12:15:31;;;;;;;;;;;;;;;19.48;70.09;100373.28;5075542;28;1662;-63
2021/10/02 12:17:56;;;;;;;;;;;;;;;19.74;69.08;100368.56;5074712;28;1913;-63
2021/10/02 12:20:21;;;;;;;;;;;;;;;20.04;68.50;100369.72;5074884;28;1608;-63
2021/10/02 12:22:46;;;;;;;;;;;;;;;20.37;67.93;100361.53;5074688;28;1864;-63
2021/10/02 12:25:11;;;;;;;;;;;;;;;20.57;67.58;100362.81;5057151;28;1732;-63
2021/10/02 12:27:36;;;;;;;;;;;;;;;20.86;67.25;100348.63;5074590;28;906;-63
2021/10/02 12:30:01;;;;;;;;;;;;;;;21.05;67.20;100348.16;5075367;28;848;-63
2021/10/02 12:32:30;;;;;;;;;;;;;;;21.26;67.34;100341.28;5074930;28;1017;-63
2021/10/02 12:34:55;;;;;;;;;;;;;;;21.46;66.99;100327.06;5075328;28;882;-64
2021/10/02 12:37:20;;;;;;;;;;;;;;;21.62;66.53;100326.06;5074700;28;1959;-63
2021/10/02 12:39:45;;;;;;;;;;;;;;;21.79;66.39;100324.03;5057219;28;1337;-63
2021/10/02 12:42:10;;;;;;;;;;;;;;;22.04;65.71;100330.06;5056580;28;1944;-63
2021/10/02 12:44:35;;;;;;;;;;;;;;;22.06;65.81;100317.16;5073998;28;1730;-63
2021/10/02 12:47:00;;;;;;;;;;;;;;;22.19;65.87;100319.22;5073630;28;1406;-63
2021/10/02 12:49:26;;;;;;;;;;;;;;;22.23;65.75;100310.50;5072861;28;877;-63
2021/10/02 12:51:51;;;;;;;;;;;;;;;22.33;65.79;100307.50;5074005;28;1538;-63
2021/10/02 12:54:16;;;;;;;;;;;;;;;22.38;65.06;100297.78;5074230;28;1217;-63
2021/10/02 12:56:41;;;;;;;;;;;;;;;22.40;65.73;100287.53;5075211;28;1203;-63
2021/10/02 12:59:06;;;;;;;;;;;;;;;22.48;65.38;100292.88;5074524;28;1989;-63
2021/10/02 13:01:31;;;;;;;;;;;;;;;22.52;65.47;100288.75;5074359;28;1052;-63
2021/10/02 13:03:56;;;;;;;;;;;;;;;22.60;65.21;100273.38;5074719;28;914;-64
2021/10/02 13:06:21;;;;;;;;;;;;;;;22.65;65.21;100276.34;5074360;28;1002;-63
2021/10/02 13:08:46;;;;;;;;;;;;;;;22.80;65.20;100269.03;5074477;28;1239;-63
2021/10/02 13:11:11;;;;;;;;;;;;;;;22.84;65.22;100259.47;5074124;28;1924;-63
2021/10/02 13:13:36;;;;;;;;;;;;;;;22.90;64.62;100256.00;5074153;28;1849;-63
2021/10/02 13:16:02;;;;;;;;;;;;;;;22.96;64.64;100247.03;5074248;28;1040;-64
2021/10/02 13:18:28;;;;;;;;;;;;;;;22.99;64.56;100252.09;5074563;28;1894;-63
2021/10/02 13:20:53;;;;;;;;;;;;;;;22.99;64.78;100240.38;5074462;28;807;-63
2021/10/02 13:23:19;;;;;;;;;;;;;;;23.07;64.44;100242.97;5074236;28;870;-63
2021/10/02 13:25:44;;;;;;;;;;;;;;;23.03;64.60;100236.25;5074207;28;866;-63